Lacey, Washington
Current Conditions -  °F | °C
As of 11:54 AM on Monday 24 Nov 2014 (Local Time) from KOLM Reporting Station
Overcast Overcast  
Wind Chill: 46°   Ceiling: 4900
Heat Index: 48°   Visibility: 10mi
Dew Point: 44°   Wind: 5mph
Humidity: 86%   Direction: 230°SW
Pressure: 30.3"   Gusts: NA
Location:  47.04°N, 122.82°W
Report Text: KOLM 241954Z 23004KT 10SM SCT016 BKN049 OVC095 09/07 A3030 RMK AO2 SLP260 T00890067
Loading
Personal Weather Stations






























Interactive Weather Map New forecast layout! Learn more

10-Day Weather Forecast

Advertisements
Track Severe Weather on mobile